Time;durP1;ratioP1;P1;durP2;ratioP2;P2;SDS_P1;SDS_P2;PMS_P1;PMS_P2;Temp;Humidity;BMP_temperature;BMP_pressure;BME280_temperature;BME280_humidity;BME280_pressure;Samples;Min_cycle;Max_cycle;Signal;HPM_P1;HPM_P2
2023/07/27 00:05:37;;;;;;;9.80;6.10;;;;;;;11.75;100.00;98582.49;273478;1256;22493;-82
2023/07/27 00:11:38;;;;;;;9.30;6.50;;;;;;;11.77;100.00;98583.98;273604;1268;22542;-83
2023/07/27 00:17:40;;;;;;;7.90;6.30;;;;;;;11.77;100.00;98590.80;273604;1258;22822;-82
2023/07/27 00:23:42;;;;;;;11.60;6.40;;;;;;;11.77;100.00;98584.91;270584;1265;22571;-83
2023/07/27 00:29:44;;;;;;;11.00;6.30;;;;;;;11.79;100.00;98584.38;269920;1268;22621;-82
2023/07/27 00:35:59;;;;;;;12.60;6.70;;;;;;;11.79;100.00;98592.52;272921;1268;22311;-84
2023/07/27 00:42:01;;;;;;;11.10;5.90;;;;;;;11.83;100.00;98597.69;273713;1268;22440;-83
2023/07/27 00:48:04;;;;;;;13.60;7.50;;;;;;;11.84;100.00;98601.45;270711;1268;22582;-83
2023/07/27 00:54:08;;;;;;;12.00;8.50;;;;;;;11.86;100.00;98604.19;269977;1269;23264;-85
2023/07/27 01:00:10;;;;;;;10.60;8.40;;;;;;;11.85;100.00;98599.25;270106;1268;25345;-83
2023/07/27 01:06:12;;;;;;;9.80;8.10;;;;;;;11.85;100.00;98606.63;269731;1261;22576;-86
2023/07/27 01:12:25;;;;;;;9.60;7.10;;;;;;;11.83;100.00;98615.71;273643;1257;23040;-84
2023/07/27 01:18:50;;;;;;;9.80;7.30;;;;;;;11.80;100.00;98622.92;273686;1268;22359;-84
2023/07/27 01:25:10;;;;;;;10.20;7.40;;;;;;;11.82;100.00;98622.61;271961;1258;22581;-84
2023/07/27 01:31:19;;;;;;;10.10;7.50;;;;;;;11.82;100.00;98620.19;270382;1265;23338;-84
2023/07/27 01:37:22;;;;;;;11.20;8.50;;;;;;;11.81;100.00;98628.73;269718;1265;23365;-84
2023/07/27 01:43:28;;;;;;;11.60;7.80;;;;;;;11.80;100.00;98632.55;271323;1268;22331;-85
2023/07/27 01:49:30;;;;;;;13.70;7.70;;;;;;;11.76;100.00;98632.94;272342;1268;22176;-84
2023/07/27 01:55:33;;;;;;;14.10;9.00;;;;;;;11.73;100.00;98640.31;273561;1268;22386;-83
2023/07/27 02:01:38;;;;;;;16.50;10.60;;;;;;;11.66;100.00;98650.95;273721;1258;22407;-84
2023/07/27 02:07:40;;;;;;;11.70;7.30;;;;;;;11.62;100.00;98648.90;273562;1267;22250;-87
2023/07/27 02:13:46;;;;;;;10.70;7.20;;;;;;;11.53;100.00;98649.10;273507;1268;22276;-85
2023/07/27 02:19:51;;;;;;;12.40;7.30;;;;;;;11.49;100.00;98650.66;272771;1263;22328;-85
2023/07/27 02:25:53;;;;;;;11.50;6.60;;;;;;;11.45;100.00;98648.70;271538;1268;22387;-85
2023/07/27 02:31:54;;;;;;;13.80;7.00;;;;;;;11.38;100.00;98653.85;273767;1268;22199;-84
2023/07/27 02:37:56;;;;;;;11.20;7.00;;;;;;;11.29;100.00;98668.00;270722;1268;22570;-85
2023/07/27 02:44:02;;;;;;;8.20;4.90;;;;;;;11.18;100.00;98671.48;270056;1268;22609;-85
2023/07/27 02:50:05;;;;;;;15.80;8.10;;;;;;;11.02;100.00;98675.27;271136;1268;22597;-84
2023/07/27 02:56:09;;;;;;;13.30;7.60;;;;;;;10.95;100.00;98675.70;269938;1268;22557;-85
2023/07/27 03:02:17;;;;;;;16.60;8.30;;;;;;;10.97;100.00;98682.45;269398;1267;22573;-87
2023/07/27 03:08:19;;;;;;;11.90;7.80;;;;;;;10.97;100.00;98692.38;269475;1268;22526;-84
2023/07/27 03:14:21;;;;;;;14.70;9.30;;;;;;;10.92;100.00;98695.87;269753;1269;23792;-84
2023/07/27 03:20:23;;;;;;;17.60;9.10;;;;;;;10.90;100.00;98688.20;271931;1269;22394;-85
2023/07/27 03:26:24;;;;;;;15.30;8.00;;;;;;;10.92;100.00;98684.45;270571;1267;22595;-84
2023/07/27 03:32:27;;;;;;;16.60;7.40;;;;;;;10.91;100.00;98689.21;270101;1266;25170;-84
2023/07/27 03:38:30;;;;;;;16.40;6.80;;;;;;;10.85;100.00;98694.50;269850;1267;25522;-87
2023/07/27 03:44:31;;;;;;;12.90;6.80;;;;;;;10.82;100.00;98694.33;273002;1256;23319;-85
2023/07/27 03:50:33;;;;;;;18.60;6.60;;;;;;;10.85;100.00;98701.86;273411;1268;23170;-85
2023/07/27 03:56:35;;;;;;;15.70;6.70;;;;;;;10.89;100.00;98706.50;272494;1268;22538;-84
2023/07/27 04:02:36;;;;;;;21.90;7.10;;;;;;;10.93;100.00;98713.41;272243;1268;22301;-84
2023/07/27 04:08:38;;;;;;;13.70;6.70;;;;;;;10.97;100.00;98718.35;273563;1268;22481;-85
2023/07/27 04:14:40;;;;;;;14.90;7.20;;;;;;;11.01;100.00;98723.61;273364;1269;22394;-84
2023/07/27 04:20:42;;;;;;;17.00;6.90;;;;;;;11.05;100.00;98725.83;273591;1268;22227;-85
2023/07/27 04:26:44;;;;;;;9.00;6.50;;;;;;;11.10;100.00;98729.45;273083;1268;23389;-85
2023/07/27 04:32:47;;;;;;;21.60;6.50;;;;;;;11.15;100.00;98730.80;273645;1268;22515;-85
2023/07/27 04:38:48;;;;;;;16.70;6.70;;;;;;;11.20;100.00;98737.02;272945;1261;23426;-85
2023/07/27 04:44:50;;;;;;;9.30;6.40;;;;;;;11.27;100.00;98742.67;273680;1264;22377;-85
2023/07/27 04:50:52;;;;;;;12.50;6.40;;;;;;;11.34;100.00;98742.08;273445;1268;22419;-85
2023/07/27 04:56:54;;;;;;;22.80;6.80;;;;;;;11.44;100.00;98739.45;273534;1268;22422;-85
2023/07/27 05:02:58;;;;;;;11.60;6.20;;;;;;;11.49;100.00;98745.34;273612;1269;22396;-85
2023/07/27 05:09:00;;;;;;;16.70;6.30;;;;;;;11.53;100.00;98748.80;273559;1269;22624;-85
2023/07/27 05:15:03;;;;;;;16.00;6.60;;;;;;;11.60;100.00;98747.73;273607;1268;22281;-85
2023/07/27 05:21:04;;;;;;;17.40;7.60;;;;;;;11.72;100.00;98759.31;273606;1269;22399;-85
2023/07/27 05:27:06;;;;;;;12.40;7.00;;;;;;;11.90;100.00;98754.10;273566;1268;22397;-84
2023/07/27 05:33:08;;;;;;;14.10;7.20;;;;;;;12.07;100.00;98754.92;273502;1268;22402;-85
2023/07/27 05:39:10;;;;;;;13.70;7.20;;;;;;;12.12;100.00;98758.21;273554;1269;22489;-85
2023/07/27 05:45:11;;;;;;;12.30;6.30;;;;;;;12.23;100.00;98764.34;273560;1267;22382;-84
2023/07/27 05:51:13;;;;;;;12.00;6.00;;;;;;;12.34;100.00;98763.26;273704;1268;22368;-85
2023/07/27 05:57:15;;;;;;;15.00;6.20;;;;;;;12.44;100.00;98764.42;273721;1270;22481;-85
2023/07/27 06:03:19;;;;;;;7.70;5.00;;;;;;;12.57;100.00;98765.05;273663;1268;22188;-85
2023/07/27 06:09:20;;;;;;;12.00;4.60;;;;;;;12.63;100.00;98768.98;273315;1267;22224;-84
2023/07/27 06:15:22;;;;;;;9.80;4.30;;;;;;;12.67;100.00;98771.16;273494;1268;22291;-84
2023/07/27 06:21:24;;;;;;;9.10;4.90;;;;;;;12.78;100.00;98770.13;270502;1267;22570;-84
2023/07/27 06:27:25;;;;;;;11.50;5.00;;;;;;;12.91;100.00;98769.55;270097;1267;22625;-84
2023/07/27 06:33:27;;;;;;;6.60;4.60;;;;;;;13.05;100.00;98774.73;271767;1267;380691;-85
2023/07/27 06:39:31;;;;;;;10.70;4.80;;;;;;;13.22;100.00;98777.36;272127;1267;23360;-87
2023/07/27 06:45:34;;;;;;;10.20;5.00;;;;;;;13.39;100.00;98775.35;270469;1267;24335;-85
2023/07/27 06:51:35;;;;;;;14.20;5.00;;;;;;;13.58;100.00;98771.58;273425;1267;22210;-88
2023/07/27 06:57:37;;;;;;;6.90;4.00;;;;;;;13.89;100.00;98780.38;273750;1267;22965;-86
2023/07/27 07:03:38;;;;;;;7.70;3.50;;;;;;;14.31;100.00;98781.06;270503;1267;25784;-87
2023/07/27 07:09:40;;;;;;;8.50;3.20;;;;;;;14.71;100.00;98780.92;271852;1267;22471;-85
2023/07/27 07:15:43;;;;;;;8.90;3.20;;;;;;;14.83;100.00;98787.19;271715;1267;23503;-86
2023/07/27 07:21:44;;;;;;;4.60;2.60;;;;;;;14.99;100.00;98789.40;271426;1267;25416;-86
2023/07/27 07:27:46;;;;;;;4.20;2.60;;;;;;;15.43;100.00;98788.63;271031;1267;24209;-86
2023/07/27 07:33:48;;;;;;;5.70;2.10;;;;;;;16.02;100.00;98785.05;270605;1267;22269;-86
2023/07/27 07:39:50;;;;;;;10.10;3.10;;;;;;;16.47;100.00;98785.58;273644;1267;22497;-85
2023/07/27 07:45:51;;;;;;;4.50;2.20;;;;;;;16.73;100.00;98788.70;273500;1267;22462;-87
2023/07/27 07:51:53;;;;;;;4.00;2.50;;;;;;;17.00;100.00;98785.48;273641;1267;22385;-85
2023/07/27 07:57:55;;;;;;;4.40;1.70;;;;;;;17.35;100.00;98783.71;273518;1268;22628;-85
2023/07/27 08:03:56;;;;;;;6.10;2.40;;;;;;;17.46;100.00;98784.94;273007;1267;23827;-86
2023/07/27 08:09:59;;;;;;;4.00;2.30;;;;;;;17.40;100.00;98785.44;271986;1267;22536;-85
2023/07/27 08:16:03;;;;;;;6.00;2.80;;;;;;;17.54;100.00;98781.48;270903;1267;22398;-86
2023/07/27 08:22:05;;;;;;;2.80;1.60;;;;;;;17.84;100.00;98784.95;272275;1267;22658;-83
2023/07/27 08:28:07;;;;;;;3.40;1.70;;;;;;;18.10;100.00;98789.38;270964;1267;22378;-85
2023/07/27 08:34:09;;;;;;;3.10;1.50;;;;;;;18.26;100.00;98786.95;272062;1267;22546;-84
2023/07/27 08:40:11;;;;;;;2.80;1.40;;;;;;;18.27;100.00;98783.77;271602;1267;22568;-83
2023/07/27 08:46:13;;;;;;;2.60;1.40;;;;;;;18.28;100.00;98779.23;270252;1257;22563;-83
2023/07/27 08:52:15;;;;;;;2.00;1.00;;;;;;;18.34;100.00;98778.98;273457;1267;22360;-84
2023/07/27 08:58:17;;;;;;;3.60;1.10;;;;;;;18.37;99.97;98776.49;273459;1251;22434;-84
2023/07/27 09:04:19;;;;;;;4.50;1.60;;;;;;;18.40;99.00;98775.48;273636;1267;22204;-84
2023/07/27 09:10:22;;;;;;;2.90;1.20;;;;;;;18.60;99.05;98773.95;273495;1267;22495;-84
2023/07/27 09:16:24;;;;;;;3.90;1.20;;;;;;;18.76;97.80;98768.34;273320;1267;22455;-85
2023/07/27 09:22:25;;;;;;;3.80;1.20;;;;;;;18.93;96.38;98770.99;273544;1267;22201;-84
2023/07/27 09:28:28;;;;;;;5.40;2.00;;;;;;;19.34;96.01;98766.73;273442;1267;22525;-85
2023/07/27 09:34:31;;;;;;;2.70;1.20;;;;;;;19.77;94.78;98760.73;272571;1261;22680;-85
2023/07/27 09:40:36;;;;;;;5.70;1.60;;;;;;;20.29;93.16;98763.46;273321;1267;23092;-84
2023/07/27 09:46:37;;;;;;;2.60;1.30;;;;;;;20.74;91.15;98771.04;273420;1257;22458;-84
2023/07/27 09:52:39;;;;;;;4.50;1.30;;;;;;;21.17;89.54;98766.41;273552;1253;23410;-85
2023/07/27 09:58:41;;;;;;;2.30;1.00;;;;;;;22.06;88.28;98758.66;273508;1267;23388;-85
2023/07/27 10:04:46;;;;;;;6.70;1.10;;;;;;;22.75;84.80;98750.25;273646;1257;22209;-85
2023/07/27 10:10:55;;;;;;;1.90;1.00;;;;;;;23.12;83.10;98745.14;273484;1254;22549;-84
2023/07/27 10:17:04;;;;;;;2.60;1.10;;;;;;;23.43;82.30;98741.42;273576;1257;22415;-85
2023/07/27 10:23:10;;;;;;;2.50;1.10;;;;;;;23.59;79.19;98738.61;273661;1267;23112;-84
2023/07/27 10:29:17;;;;;;;1.20;0.90;;;;;;;23.90;78.02;98735.48;273597;1267;22387;-85
2023/07/27 10:35:18;;;;;;;2.60;1.50;;;;;;;24.07;76.48;98735.20;272982;1257;22472;-85
2023/07/27 10:41:22;;;;;;;4.60;1.20;;;;;;;24.18;75.27;98729.01;272767;1267;24283;-84
2023/07/27 10:47:32;;;;;;;5.70;1.50;;;;;;;24.17;73.76;98718.88;270535;1267;25355;-84
2023/07/27 10:53:35;;;;;;;3.30;1.30;;;;;;;24.23;72.52;98711.67;272406;1256;22181;-84
2023/07/27 10:59:41;;;;;;;3.30;1.50;;;;;;;23.99;70.32;98704.80;271145;1267;24208;-83
2023/07/27 11:06:01;;;;;;;4.60;1.30;;;;;;;23.44;69.54;98703.72;272330;1267;22369;-84
2023/07/27 11:12:04;;;;;;;1.80;1.20;;;;;;;23.70;70.00;98698.55;273696;1256;22465;-85
2023/07/27 11:18:05;;;;;;;2.40;1.00;;;;;;;24.31;68.62;98688.86;273616;1266;22414;-85
2023/07/27 11:24:08;;;;;;;2.50;1.50;;;;;;;24.85;67.78;98685.46;273573;1267;22256;-84
2023/07/27 11:30:16;;;;;;;1.40;0.80;;;;;;;24.93;65.02;98680.65;273669;1266;22413;-84
2023/07/27 11:36:18;;;;;;;1.70;1.30;;;;;;;24.90;64.91;98673.86;273642;1263;22432;-83
2023/07/27 11:42:27;;;;;;;3.30;1.50;;;;;;;25.09;62.51;98660.63;272495;1267;22937;-84
2023/07/27 11:48:29;;;;;;;2.50;1.00;;;;;;;24.87;61.95;98649.50;271582;1267;22435;-84
2023/07/27 11:54:32;;;;;;;2.00;1.20;;;;;;;24.20;60.63;98651.46;272969;1252;22479;-85
2023/07/27 12:00:33;;;;;;;2.60;1.20;;;;;;;23.51;59.93;98648.53;273575;1257;22215;-84
2023/07/27 12:06:35;;;;;;;1.50;1.00;;;;;;;23.05;60.05;98644.17;273382;1261;23194;-84
2023/07/27 12:12:51;;;;;;;3.10;1.30;;;;;;;22.90;60.34;98640.52;273494;1264;22409;-83
2023/07/27 12:18:53;;;;;;;3.00;1.60;;;;;;;22.84;60.05;98637.44;273610;1252;22521;-84
2023/07/27 12:24:56;;;;;;;3.50;1.40;;;;;;;22.75;59.42;98630.91;273538;1253;23652;-83
2023/07/27 12:30:57;;;;;;;1.70;1.00;;;;;;;22.53;58.26;98628.80;273495;1256;22409;-83
2023/07/27 12:36:59;;;;;;;1.60;1.10;;;;;;;22.33;57.93;98616.02;273624;1267;22899;-84
2023/07/27 12:43:01;;;;;;;3.10;1.00;;;;;;;22.24;57.51;98611.02;273652;1257;22207;-83
2023/07/27 12:49:03;;;;;;;2.60;1.20;;;;;;;22.29;58.40;98608.88;272353;1267;22470;-83
2023/07/27 12:55:05;;;;;;;3.60;1.40;;;;;;;22.27;58.62;98604.42;272806;1267;22387;-85
2023/07/27 13:01:07;;;;;;;2.10;1.30;;;;;;;21.99;57.60;98598.41;271154;1267;23547;-84
2023/07/27 13:07:10;;;;;;;2.40;1.20;;;;;;;21.74;57.77;98598.30;271201;1267;22282;-84
2023/07/27 13:13:12;;;;;;;2.40;1.20;;;;;;;21.66;57.86;98596.45;273541;1267;23196;-83
2023/07/27 13:19:14;;;;;;;2.20;1.30;;;;;;;21.65;57.96;98591.67;272958;1267;22572;-83
2023/07/27 13:25:15;;;;;;;2.70;1.20;;;;;;;21.53;57.32;98589.98;272560;1267;23472;-84
2023/07/27 13:31:22;;;;;;;3.70;1.40;;;;;;;21.40;57.00;98583.91;273569;1267;22570;-83
2023/07/27 13:37:24;;;;;;;2.50;1.40;;;;;;;21.42;57.03;98581.88;273597;1267;22262;-85
2023/07/27 13:43:25;;;;;;;1.80;1.40;;;;;;;21.32;56.34;98583.41;273611;1257;22396;-83
2023/07/27 13:49:28;;;;;;;1.50;1.20;;;;;;;21.26;56.32;98581.84;273583;1258;22473;-84
2023/07/27 13:55:29;;;;;;;2.00;1.40;;;;;;;21.35;56.97;98579.71;273385;1257;22204;-83
2023/07/27 14:01:31;;;;;;;2.90;1.60;;;;;;;21.42;56.97;98575.91;273271;1258;22391;-82
2023/07/27 14:07:33;;;;;;;3.40;1.60;;;;;;;21.53;58.03;98569.31;273390;1267;23281;-83
2023/07/27 14:13:34;;;;;;;2.50;1.50;;;;;;;21.65;56.97;98568.56;273529;1267;23310;-83
2023/07/27 14:19:36;;;;;;;1.90;1.20;;;;;;;21.71;56.16;98573.13;273554;1267;22470;-83
2023/07/27 14:25:38;;;;;;;3.20;1.20;;;;;;;21.64;56.13;98567.97;273377;1261;22476;-84
2023/07/27 14:31:40;;;;;;;2.20;1.30;;;;;;;21.45;56.25;98563.07;273585;1267;22226;-83
2023/07/27 14:37:41;;;;;;;2.50;1.20;;;;;;;21.29;55.73;98557.20;273565;1265;22378;-84
2023/07/27 14:43:43;;;;;;;5.00;1.40;;;;;;;21.20;55.94;98555.18;273493;1256;22173;-83
2023/07/27 14:49:46;;;;;;;1.90;1.30;;;;;;;21.07;56.60;98546.94;273534;1256;22154;-82
2023/07/27 14:55:48;;;;;;;2.50;1.30;;;;;;;20.87;57.18;98544.33;273536;1256;23448;-83
2023/07/27 15:01:49;;;;;;;1.90;1.50;;;;;;;20.81;57.71;98543.20;271990;1257;22178;-83
2023/07/27 15:07:51;;;;;;;2.00;1.20;;;;;;;20.86;57.37;98535.83;273038;1267;23803;-84
2023/07/27 15:13:56;;;;;;;2.60;1.50;;;;;;;20.94;58.07;98532.61;271819;1257;22404;-83
2023/07/27 15:19:58;;;;;;;1.80;1.20;;;;;;;20.96;58.28;98529.98;272045;1267;23179;-83
2023/07/27 15:26:02;;;;;;;2.10;1.10;;;;;;;20.98;57.58;98521.44;272920;1257;23098;-84
2023/07/27 15:32:04;;;;;;;1.80;1.50;;;;;;;20.97;57.34;98516.30;273577;1257;22929;-83
2023/07/27 15:38:05;;;;;;;2.30;1.30;;;;;;;20.87;57.36;98517.42;273491;1267;22559;-83
2023/07/27 15:44:07;;;;;;;1.80;1.20;;;;;;;20.85;57.88;98513.39;273555;1257;22364;-82
2023/07/27 15:50:09;;;;;;;2.10;1.30;;;;;;;20.85;57.97;98513.50;273491;1267;22847;-83
2023/07/27 15:56:11;;;;;;;4.20;1.40;;;;;;;20.86;57.23;98508.52;273467;1253;22892;-83
2023/07/27 16:02:12;;;;;;;6.50;1.70;;;;;;;20.88;56.83;98502.67;273544;1258;22701;-83
2023/07/27 16:08:15;;;;;;;2.70;1.10;;;;;;;20.91;56.53;98501.63;273394;1257;22412;-83
2023/07/27 16:14:17;;;;;;;4.50;1.60;;;;;;;21.02;55.37;98502.25;273507;1258;22497;-83
2023/07/27 16:20:19;;;;;;;2.60;1.40;;;;;;;21.11;55.60;98498.85;271712;1258;22544;-83
2023/07/27 16:26:20;;;;;;;6.00;1.30;;;;;;;20.97;56.27;98497.37;273435;1257;22378;-83
2023/07/27 16:32:22;;;;;;;2.70;1.50;;;;;;;20.79;56.49;98492.41;273537;1259;22169;-83
2023/07/27 16:38:24;;;;;;;2.80;1.20;;;;;;;20.69;56.09;98496.61;265741;1267;10002127;-83
2023/07/27 16:44:29;;;;;;;1.70;1.00;;;;;;;20.55;56.19;98497.13;273424;1256;22477;-83
2023/07/27 16:50:31;;;;;;;3.40;1.50;;;;;;;20.38;56.53;98499.16;273432;1259;23731;-83
2023/07/27 16:56:32;;;;;;;5.70;1.60;;;;;;;20.22;56.67;98498.16;273439;1256;22419;-82
2023/07/27 17:02:35;;;;;;;5.30;2.10;;;;;;;20.09;56.34;98495.38;273368;1268;22899;-84
2023/07/27 17:08:37;;;;;;;2.20;1.60;;;;;;;20.02;56.78;98494.94;273394;1259;22390;-83
2023/07/27 17:14:39;;;;;;;3.60;2.00;;;;;;;19.95;57.17;98492.71;273402;1267;22552;-83
2023/07/27 17:20:41;;;;;;;2.80;1.80;;;;;;;19.93;57.67;98498.02;273389;1266;22431;-83
2023/07/27 17:26:42;;;;;;;2.00;1.50;;;;;;;19.87;57.82;98502.19;273350;1259;22337;-83
2023/07/27 17:32:44;;;;;;;3.60;2.00;;;;;;;19.82;57.70;98501.98;273441;1267;22380;-83
2023/07/27 17:38:46;;;;;;;2.40;1.70;;;;;;;19.75;57.97;98500.55;273309;1259;22377;-83
2023/07/27 17:44:47;;;;;;;5.10;2.40;;;;;;;19.64;58.36;98509.48;273158;1267;22399;-83
2023/07/27 17:50:57;;;;;;;4.30;2.40;;;;;;;19.50;58.79;98510.25;272966;1259;22747;-83
2023/07/27 17:56:58;;;;;;;3.70;2.50;;;;;;;19.34;60.23;98514.04;271593;1259;22376;-83
2023/07/27 18:03:00;;;;;;;9.10;2.30;;;;;;;19.20;61.49;98505.02;272307;1259;22588;-83
2023/07/27 18:09:03;;;;;;;4.80;1.90;;;;;;;18.99;62.40;98493.70;272715;1267;23519;-83
2023/07/27 18:15:06;;;;;;;3.50;2.10;;;;;;;18.77;63.32;98494.36;273440;1256;22434;-83
2023/07/27 18:21:11;;;;;;;5.20;2.00;;;;;;;18.60;65.13;98497.70;273440;1261;22356;-83
2023/07/27 18:27:13;;;;;;;3.30;1.90;;;;;;;18.34;66.41;98502.20;273480;1257;22435;-83
2023/07/27 18:33:14;;;;;;;4.10;2.20;;;;;;;18.15;67.39;98502.97;273230;1266;225781;-82
2023/07/27 18:39:16;;;;;;;5.10;2.70;;;;;;;17.95;68.35;98497.02;273325;1258;22453;-83
2023/07/27 18:45:18;;;;;;;4.30;2.80;;;;;;;17.76;68.60;98500.36;273436;1267;22253;-83
2023/07/27 18:51:20;;;;;;;5.30;2.30;;;;;;;17.63;69.43;98505.61;273408;1267;22364;-83
2023/07/27 18:57:22;;;;;;;4.00;2.40;;;;;;;17.48;69.54;98500.66;273456;1268;22503;-83
2023/07/27 19:03:24;;;;;;;4.70;2.50;;;;;;;17.33;70.38;98495.89;273359;1259;22273;-83
2023/07/27 19:09:26;;;;;;;5.00;2.90;;;;;;;17.18;71.58;98494.48;273208;1268;22643;-82
2023/07/27 19:15:29;;;;;;;6.10;3.40;;;;;;;17.07;73.12;98496.23;273423;1251;22527;-83
2023/07/27 19:21:31;;;;;;;5.20;2.80;;;;;;;16.97;73.27;98504.52;273548;1267;22914;-82
2023/07/27 19:27:32;;;;;;;7.30;3.70;;;;;;;16.88;74.49;98494.39;273446;1259;24050;-82
2023/07/27 19:33:34;;;;;;;6.60;3.60;;;;;;;16.86;76.06;98489.60;273419;1257;23225;-82
2023/07/27 19:39:35;;;;;;;5.60;3.20;;;;;;;16.86;76.54;98487.46;273413;1264;22409;-82
2023/07/27 19:45:37;;;;;;;7.60;3.40;;;;;;;16.85;77.16;98488.14;273568;1268;22376;-83
2023/07/27 19:51:39;;;;;;;8.00;3.50;;;;;;;16.82;78.27;98485.27;273464;1267;23554;-83
2023/07/27 19:57:40;;;;;;;4.20;3.00;;;;;;;16.79;78.02;98491.02;273560;1259;23113;-83
2023/07/27 20:03:44;;;;;;;7.90;3.50;;;;;;;16.62;76.80;98492.57;273572;1269;22488;-83
2023/07/27 20:09:47;;;;;;;5.50;3.70;;;;;;;16.59;76.81;98478.44;273578;1267;22370;-82
2023/07/27 20:15:48;;;;;;;4.20;2.60;;;;;;;16.62;75.78;98475.13;273533;1257;22138;-82
2023/07/27 20:21:51;;;;;;;5.00;3.10;;;;;;;16.70;75.31;98474.65;273447;1259;22472;-83
2023/07/27 20:27:53;;;;;;;4.20;2.70;;;;;;;16.73;75.85;98476.79;273316;1266;22365;-83
2023/07/27 20:33:55;;;;;;;5.30;3.50;;;;;;;16.59;76.02;98481.98;273533;1268;22374;-82
2023/07/27 20:39:57;;;;;;;3.80;2.60;;;;;;;16.48;76.72;98476.37;273595;1267;22242;-82
2023/07/27 20:46:03;;;;;;;6.50;3.00;;;;;;;16.40;76.91;98469.02;273667;1267;22380;-83
2023/07/27 20:52:05;;;;;;;5.00;3.00;;;;;;;16.39;76.98;98471.64;273692;1256;23008;-82
2023/07/27 20:58:06;;;;;;;6.90;2.80;;;;;;;16.39;77.63;98462.23;273646;1267;22436;-83
2023/07/27 21:04:08;;;;;;;4.30;2.50;;;;;;;16.46;76.76;98456.28;273655;1257;23655;-83
2023/07/27 21:10:11;;;;;;;7.30;2.70;;;;;;;16.56;76.80;98453.89;273632;1268;23236;-83
2023/07/27 21:16:12;;;;;;;7.90;2.70;;;;;;;16.56;77.02;98451.65;273595;1257;22896;-82
2023/07/27 21:22:14;;;;;;;4.00;2.40;;;;;;;16.53;77.39;98448.30;273521;1259;22256;-83
2023/07/27 21:28:17;;;;;;;4.70;2.70;;;;;;;16.54;76.95;98444.81;273623;1257;22151;-82
2023/07/27 21:34:19;;;;;;;5.20;2.70;;;;;;;16.56;76.75;98441.55;273556;1268;22394;-83
2023/07/27 21:40:20;;;;;;;5.70;2.60;;;;;;;16.50;76.43;98442.71;273649;1257;24332;-83
2023/07/27 21:46:22;;;;;;;6.60;2.80;;;;;;;16.46;76.26;98441.91;273627;1267;22345;-82
2023/07/27 21:52:23;;;;;;;5.50;2.70;;;;;;;16.48;75.78;98432.81;273548;1254;22451;-83
2023/07/27 21:58:25;;;;;;;7.20;2.90;;;;;;;16.42;75.32;98426.44;273468;1268;22294;-83
2023/07/27 22:04:26;;;;;;;3.50;2.30;;;;;;;16.37;75.23;98423.77;273427;1256;22357;-83
2023/07/27 22:10:28;;;;;;;6.80;2.50;;;;;;;16.35;75.15;98426.65;273413;1267;22297;-83
2023/07/27 22:16:29;;;;;;;2.50;1.70;;;;;;;16.30;75.00;98425.27;273620;1267;22422;-82
2023/07/27 22:22:32;;;;;;;3.20;2.20;;;;;;;16.28;74.85;98421.35;273612;1267;22396;-83
2023/07/27 22:28:35;;;;;;;3.70;2.40;;;;;;;16.33;74.96;98424.27;273544;1258;22267;-83
2023/07/27 22:34:37;;;;;;;3.50;2.60;;;;;;;16.32;74.78;98423.98;273311;1263;22414;-83
2023/07/27 22:40:52;;;;;;;3.90;2.30;;;;;;;16.28;74.25;98417.03;273668;1257;22187;-82
2023/07/27 22:46:54;;;;;;;3.30;2.50;;;;;;;16.27;74.37;98411.67;273607;1267;23233;-83
2023/07/27 22:52:55;;;;;;;5.50;2.60;;;;;;;16.29;75.95;98406.98;273480;1260;22429;-83
2023/07/27 22:58:57;;;;;;;4.80;2.80;;;;;;;16.31;77.31;98404.89;273491;1266;22479;-83
2023/07/27 23:05:00;;;;;;;4.90;2.60;;;;;;;16.29;77.54;98398.46;273711;1257;22634;-82
2023/07/27 23:11:02;;;;;;;5.40;2.40;;;;;;;16.24;76.82;98391.70;273710;1267;23332;-83
2023/07/27 23:17:04;;;;;;;2.90;2.20;;;;;;;16.21;78.38;98392.08;273707;1267;22414;-83
2023/07/27 23:23:06;;;;;;;3.00;2.00;;;;;;;16.17;78.80;98387.27;273657;1267;22223;-82
2023/07/27 23:29:07;;;;;;;7.70;2.60;;;;;;;16.12;79.56;98384.21;273647;1256;22446;-83
2023/07/27 23:35:09;;;;;;;5.60;2.70;;;;;;;16.10;81.63;98383.39;272826;1267;22230;-82
2023/07/27 23:41:10;;;;;;;7.80;2.90;;;;;;;15.98;81.24;98384.25;273692;1257;22425;-83
2023/07/27 23:47:12;;;;;;;4.40;2.80;;;;;;;15.84;81.36;98384.93;272168;1261;22522;-83
2023/07/27 23:53:15;;;;;;;5.00;3.20;;;;;;;15.76;81.49;98386.98;271220;1264;22524;-82
2023/07/27 23:59:16;;;;;;;9.10;3.40;;;;;;;15.68;81.79;98388.24;272677;1267;22245;-83
